createdAt,value
2018-10-01T00:02:03.598Z,9.73
2018-10-01T00:04:31.773Z,9.45
2018-10-01T00:06:59.969Z,9.05
2018-10-01T00:09:28.305Z,9.20
2018-10-01T00:11:56.484Z,9.10
2018-10-01T00:14:24.655Z,9.93
2018-10-01T00:16:52.826Z,10.08
2018-10-01T00:19:26.511Z,8.65
2018-10-01T00:22:00.160Z,9.30
2018-10-01T00:24:28.400Z,9.20
2018-10-01T00:26:56.621Z,8.68
2018-10-01T00:29:24.811Z,9.08
2018-10-01T00:31:52.991Z,8.65
2018-10-01T00:34:21.285Z,8.60
2018-10-01T00:36:49.588Z,8.95
2018-10-01T00:39:17.746Z,8.95
2018-10-01T00:41:45.957Z,8.30
2018-10-01T00:44:14.120Z,7.55
2018-10-01T00:46:42.323Z,7.58
2018-10-01T00:49:10.533Z,8.28
2018-10-01T00:51:38.739Z,8.40
2018-10-01T00:54:07.130Z,7.70
2018-10-01T00:56:35.325Z,7.50
2018-10-01T00:59:03.528Z,7.33
2018-10-01T01:01:31.664Z,7.15
2018-10-01T01:03:59.823Z,7.80
2018-10-01T01:06:27.980Z,7.08
2018-10-01T01:08:56.167Z,6.60
2018-10-01T01:11:24.275Z,7.30
2018-10-01T01:13:52.470Z,7.10
2018-10-01T01:16:20.647Z,6.37
2018-10-01T01:18:48.971Z,6.58
2018-10-01T01:21:17.166Z,6.20
2018-10-01T01:23:45.332Z,6.85
2018-10-01T01:26:13.531Z,7.28
2018-10-01T01:28:41.924Z,8.25
2018-10-01T01:31:10.127Z,9.83
2018-10-01T01:33:38.318Z,10.53
2018-10-01T01:36:06.547Z,10.88
2018-10-01T01:38:34.784Z,10.45
2018-10-01T01:41:02.987Z,11.03
2018-10-01T01:43:31.197Z,11.65
2018-10-01T01:45:59.378Z,11.60
2018-10-01T01:48:27.659Z,12.00
2018-10-01T01:50:55.856Z,12.82
2018-10-01T01:53:24.056Z,13.13
2018-10-01T01:55:52.276Z,13.38
2018-10-01T01:58:20.412Z,12.60
2018-10-01T02:00:48.679Z,12.95
2018-10-01T02:03:16.864Z,12.58
2018-10-01T02:05:45.036Z,12.37
2018-10-01T02:08:13.193Z,12.70
2018-10-01T02:10:41.388Z,12.78
2018-10-01T02:13:09.724Z,13.03
2018-10-01T02:15:38.867Z,11.93
2018-10-01T02:18:07.050Z,11.50
2018-10-01T02:20:35.239Z,10.98
2018-10-01T02:23:03.448Z,12.10
2018-10-01T02:25:31.601Z,11.30
2018-10-01T02:27:59.795Z,10.23
2018-10-01T02:30:27.935Z,9.50
2018-10-01T02:32:56.157Z,8.98
2018-10-01T02:35:24.349Z,8.10
2018-10-01T02:37:52.524Z,6.42
2018-10-01T02:40:20.748Z,5.78
2018-10-01T02:42:48.947Z,6.78
2018-10-01T02:45:17.144Z,5.40
2018-10-01T02:47:45.363Z,4.33
2018-10-01T02:50:13.508Z,4.80
2018-10-01T02:52:47.311Z,4.65
2018-10-01T02:55:15.515Z,4.03
2018-10-01T02:57:43.636Z,4.30
2018-10-01T03:00:11.835Z,3.40
2018-10-01T03:02:40.410Z,3.35
2018-10-01T03:05:08.596Z,2.75
2018-10-01T03:07:37.036Z,2.62
2018-10-01T03:10:05.324Z,2.65
2018-10-01T03:12:33.529Z,2.65
2018-10-01T03:15:01.759Z,2.47
2018-10-01T03:17:29.959Z,2.08
2018-10-01T03:19:58.237Z,2.10
2018-10-01T03:22:26.549Z,2.10
2018-10-01T03:24:54.699Z,1.72
2018-10-01T03:27:22.898Z,1.55
2018-10-01T03:29:51.151Z,1.82
2018-10-01T03:32:19.374Z,1.72
2018-10-01T03:34:47.539Z,1.42
2018-10-01T03:37:15.726Z,1.92
2018-10-01T03:39:43.902Z,1.20
2018-10-01T03:42:12.039Z,1.32
2018-10-01T03:44:40.219Z,1.45
2018-10-01T03:47:08.419Z,1.40
2018-10-01T03:49:36.603Z,2.25
2018-10-01T03:52:04.829Z,1.52
2018-10-01T03:54:33.046Z,1.47
2018-10-01T03:57:01.267Z,1.77
2018-10-01T03:59:29.451Z,1.42
2018-10-01T04:01:57.635Z,1.32
2018-10-01T04:04:25.837Z,1.45
2018-10-01T04:06:54.066Z,1.60
2018-10-01T04:09:22.258Z,1.40
2018-10-01T04:11:50.489Z,1.50
2018-10-01T04:14:18.670Z,1.27
2018-10-01T04:16:46.844Z,1.50
2018-10-01T04:19:15.088Z,1.40
2018-10-01T04:21:43.279Z,1.22
2018-10-01T04:24:11.474Z,1.30
2018-10-01T04:26:39.643Z,1.45
2018-10-01T04:29:07.840Z,1.30
2018-10-01T04:31:36.043Z,1.98
2018-10-01T04:34:04.212Z,1.40
2018-10-01T04:36:32.427Z,2.05
2018-10-01T04:39:00.586Z,1.90
2018-10-01T04:41:28.809Z,3.83
2018-10-01T04:43:56.974Z,5.42
2018-10-01T04:46:25.187Z,7.17
2018-10-01T04:48:53.378Z,6.87
2018-10-01T04:51:21.551Z,8.38
2018-10-01T04:53:49.770Z,9.28
2018-10-01T04:56:17.981Z,9.80
2018-10-01T04:58:46.195Z,9.43
2018-10-01T05:01:14.502Z,9.73
2018-10-01T05:03:42.696Z,13.38
2018-10-01T05:06:11.000Z,13.62
2018-10-01T05:08:39.158Z,14.45
2018-10-01T05:11:07.329Z,16.87
2018-10-01T05:13:35.501Z,17.20
2018-10-01T05:16:03.692Z,16.90
2018-10-01T05:18:31.993Z,16.05
2018-10-01T05:21:00.238Z,15.35
2018-10-01T05:23:28.418Z,15.32
2018-10-01T05:25:56.681Z,13.60
2018-10-01T05:28:24.857Z,14.10
2018-10-01T05:30:53.038Z,12.75
2018-10-01T05:33:21.216Z,12.13
2018-10-01T05:35:49.443Z,10.90
2018-10-01T05:38:17.613Z,11.10
2018-10-01T05:40:45.855Z,9.23
2018-10-01T05:43:14.068Z,9.98
2018-10-01T05:45:42.243Z,8.08
2018-10-01T05:48:10.547Z,8.85
2018-10-01T05:50:38.721Z,7.85
2018-10-01T05:53:06.910Z,7.55
2018-10-01T05:55:35.110Z,6.92
2018-10-01T05:58:03.430Z,6.90
2018-10-01T06:00:31.720Z,6.58
2018-10-01T06:02:59.875Z,6.47
2018-10-01T06:05:28.085Z,5.83
2018-10-01T06:07:56.344Z,5.10
2018-10-01T06:10:24.725Z,4.92
2018-10-01T06:12:52.907Z,4.67
2018-10-01T06:15:21.055Z,3.90
2018-10-01T06:17:49.245Z,3.92
2018-10-01T06:20:17.486Z,3.92
2018-10-01T06:22:45.703Z,3.50
2018-10-01T06:25:14.049Z,4.35
2018-10-01T06:27:42.260Z,3.08
2018-10-01T06:30:10.440Z,2.87
2018-10-01T06:32:38.619Z,4.47
2018-10-01T06:35:06.820Z,3.70
2018-10-01T06:37:35.055Z,3.00
2018-10-01T06:40:03.231Z,2.83
2018-10-01T06:42:31.556Z,3.10
2018-10-01T06:44:59.767Z,2.70
2018-10-01T06:47:27.970Z,2.52
2018-10-01T06:49:56.263Z,3.12
2018-10-01T06:52:24.497Z,3.10
2018-10-01T06:54:52.812Z,3.08
2018-10-01T06:57:21.051Z,2.80
2018-10-01T06:59:49.223Z,2.30
2018-10-01T07:02:17.399Z,1.80
2018-10-01T07:04:45.597Z,1.82
2018-10-01T07:07:13.807Z,1.90
2018-10-01T07:09:42.026Z,2.47
2018-10-01T07:12:10.213Z,2.08
2018-10-01T07:14:38.414Z,1.90
2018-10-01T07:17:06.685Z,1.67
2018-10-01T07:19:35.432Z,2.10
2018-10-01T07:22:03.744Z,2.22
2018-10-01T07:24:32.971Z,1.80
2018-10-01T07:27:01.139Z,2.00
2018-10-01T07:29:29.298Z,2.30
2018-10-01T07:31:57.538Z,2.00
2018-10-01T07:34:26.048Z,1.90
2018-10-01T07:36:54.228Z,1.98
2018-10-01T07:39:22.371Z,3.12
2018-10-01T07:41:50.612Z,2.02
2018-10-01T07:44:18.845Z,2.20
2018-10-01T07:46:47.023Z,3.25
2018-10-01T07:49:15.199Z,2.10
2018-10-01T07:51:43.360Z,1.65
2018-10-01T07:54:11.577Z,2.40
2018-10-01T07:56:39.928Z,1.52
2018-10-01T07:59:08.131Z,1.10
2018-10-01T08:01:36.298Z,1.22
2018-10-01T08:04:04.471Z,1.25
2018-10-01T08:06:32.717Z,1.37
2018-10-01T08:09:00.921Z,1.27
2018-10-01T08:11:29.140Z,1.22
2018-10-01T08:13:57.347Z,1.45
2018-10-01T08:16:25.582Z,1.12
2018-10-01T08:18:53.840Z,0.90
2018-10-01T08:21:22.013Z,0.80
2018-10-01T08:23:50.269Z,1.00
2018-10-01T08:26:18.542Z,0.47
2018-10-01T08:28:46.602Z,0.80
2018-10-01T08:31:14.739Z,1.10
2018-10-01T08:33:42.982Z,1.45
2018-10-01T08:36:11.122Z,1.50
2018-10-01T08:38:39.352Z,2.22
2018-10-01T08:41:07.502Z,1.32
2018-10-01T08:43:35.642Z,1.27
2018-10-01T08:46:03.954Z,1.02
2018-10-01T08:48:34.127Z,1.40
2018-10-01T08:51:08.962Z,2.08
2018-10-01T08:53:40.415Z,1.00
2018-10-01T08:56:08.626Z,1.57
2018-10-01T08:58:36.744Z,1.30
2018-10-01T09:01:04.983Z,1.50
2018-10-01T09:03:33.142Z,2.15
2018-10-01T09:06:01.283Z,1.67
2018-10-01T09:08:29.440Z,1.50
2018-10-01T09:10:57.721Z,1.52
2018-10-01T09:13:25.879Z,1.10
2018-10-01T09:15:54.003Z,1.60
2018-10-01T09:18:22.178Z,1.85
2018-10-01T09:20:50.392Z,1.67
2018-10-01T09:23:18.642Z,1.82
2018-10-01T09:25:47.020Z,1.50
2018-10-01T09:28:15.175Z,1.37
2018-10-01T09:30:43.360Z,2.08
2018-10-01T09:33:11.532Z,1.50
2018-10-01T09:35:39.778Z,1.70
2018-10-01T09:38:07.884Z,1.82
2018-10-01T09:40:36.128Z,1.87
2018-10-01T09:43:04.240Z,2.10
2018-10-01T09:45:32.421Z,1.12
2018-10-01T09:48:00.623Z,1.67
2018-10-01T09:50:28.761Z,3.35
2018-10-01T09:52:56.935Z,2.58
2018-10-01T09:55:25.108Z,1.40
2018-10-01T09:57:53.277Z,1.50
2018-10-01T10:00:26.840Z,3.72
2018-10-01T10:02:54.990Z,1.20
2018-10-01T10:05:23.159Z,2.30
2018-10-01T10:07:51.475Z,1.37
2018-10-01T10:10:19.705Z,3.72
2018-10-01T10:12:47.859Z,1.57
2018-10-01T10:15:16.016Z,2.65
2018-10-01T10:17:44.187Z,1.75
2018-10-01T10:20:12.425Z,1.50
2018-10-01T10:22:40.850Z,4.00
2018-10-01T10:25:09.030Z,1.72
2018-10-01T10:27:37.238Z,2.17
2018-10-01T10:30:06.160Z,2.30
2018-10-01T10:32:34.421Z,1.98
2018-10-01T10:35:02.532Z,2.17
2018-10-01T10:37:30.680Z,2.20
2018-10-01T10:39:58.812Z,2.25
2018-10-01T10:42:26.980Z,1.52
2018-10-01T10:44:55.159Z,2.15
2018-10-01T10:47:23.430Z,1.15
2018-10-01T10:49:51.627Z,0.85
2018-10-01T10:52:19.863Z,0.70
2018-10-01T10:54:47.997Z,1.95
2018-10-01T10:57:16.170Z,0.88
2018-10-01T10:59:44.332Z,0.65
2018-10-01T11:02:12.553Z,0.88
2018-10-01T11:04:40.675Z,1.10
2018-10-01T11:07:08.806Z,0.90
2018-10-01T11:09:36.982Z,1.42
2018-10-01T11:12:05.103Z,1.22
2018-10-01T11:14:33.436Z,1.75
2018-10-01T11:17:01.507Z,0.90
2018-10-01T11:19:29.694Z,0.78
2018-10-01T11:21:57.955Z,1.02
2018-10-01T11:24:26.083Z,1.15
2018-10-01T11:26:54.244Z,0.80
2018-10-01T11:29:22.377Z,0.85
2018-10-01T11:31:50.562Z,0.95
2018-10-01T11:34:19.566Z,0.82
2018-10-01T11:36:47.772Z,1.22
2018-10-01T11:39:16.058Z,1.10
2018-10-01T11:41:44.158Z,1.70
2018-10-01T11:44:12.295Z,1.40
2018-10-01T11:46:40.429Z,1.00
2018-10-01T11:49:08.703Z,0.90
2018-10-01T11:51:36.984Z,0.98
2018-10-01T11:54:05.098Z,1.32
2018-10-01T11:56:33.222Z,0.75
2018-10-01T11:59:01.358Z,1.00
2018-10-01T12:01:29.464Z,1.00
2018-10-01T12:03:57.776Z,1.00
2018-10-01T12:06:26.044Z,1.20
2018-10-01T12:08:54.234Z,1.60
2018-10-01T12:11:22.384Z,1.57
2018-10-01T12:13:50.560Z,1.60
2018-10-01T12:16:18.775Z,1.30
2018-10-01T12:18:46.911Z,1.25
2018-10-01T12:21:15.186Z,1.62
2018-10-01T12:23:43.309Z,1.20
2018-10-01T12:26:11.499Z,1.30
2018-10-01T12:28:39.690Z,1.30
2018-10-01T12:31:07.926Z,1.10
2018-10-01T12:33:36.238Z,1.50
2018-10-01T12:36:04.361Z,1.20
2018-10-01T12:38:32.525Z,1.40
2018-10-01T12:41:00.663Z,1.62
2018-10-01T12:43:28.907Z,1.80
2018-10-01T12:45:57.082Z,1.50
2018-10-01T12:48:25.343Z,1.30
2018-10-01T12:50:53.940Z,1.62
2018-10-01T12:53:22.088Z,1.62
2018-10-01T12:55:50.268Z,1.42
2018-10-01T12:58:18.425Z,1.15
2018-10-01T13:00:46.557Z,1.20
2018-10-01T13:03:14.748Z,1.42
2018-10-01T13:05:42.870Z,1.20
2018-10-01T13:08:10.994Z,1.20
2018-10-01T13:10:39.139Z,1.20
2018-10-01T13:13:08.366Z,1.10
2018-10-01T13:15:37.124Z,1.17
2018-10-01T13:18:05.345Z,1.82
2018-10-01T13:20:33.483Z,1.02
2018-10-01T13:23:01.687Z,1.12
2018-10-01T13:25:30.427Z,1.42
2018-10-01T13:27:58.598Z,0.90
2018-10-01T13:30:26.743Z,1.52
2018-10-01T13:32:54.910Z,1.37
2018-10-01T13:37:57.775Z,1.77
2018-10-01T13:40:25.967Z,1.32
2018-10-01T13:42:54.132Z,1.60
2018-10-01T13:45:22.361Z,1.40
2018-10-01T13:47:50.527Z,1.27
2018-10-01T13:50:18.824Z,1.95
2018-10-01T13:52:47.002Z,1.40
2018-10-01T13:55:15.793Z,1.30
2018-10-01T13:57:43.965Z,1.40
2018-10-01T14:00:13.151Z,1.22
2018-10-01T14:02:41.348Z,1.30
2018-10-01T14:05:09.559Z,1.77
2018-10-01T14:07:37.775Z,1.30
2018-10-01T14:10:05.954Z,1.45
2018-10-01T14:12:34.153Z,1.82
2018-10-01T14:15:02.471Z,1.05
2018-10-01T14:17:30.639Z,1.40
2018-10-01T14:19:59.187Z,0.95
2018-10-01T14:22:27.095Z,1.30
2018-10-01T14:24:55.324Z,1.30
2018-10-01T14:27:23.537Z,1.30
2018-10-01T14:29:51.759Z,0.90
2018-10-01T14:32:20.011Z,1.50
2018-10-01T14:34:48.187Z,1.30
2018-10-01T14:37:16.379Z,1.20
2018-10-01T14:39:45.431Z,2.05
2018-10-01T14:42:13.678Z,1.30
2018-10-01T14:44:42.437Z,1.32
2018-10-01T14:47:10.912Z,1.60
2018-10-01T14:49:39.071Z,2.45
2018-10-01T14:52:07.265Z,2.05
2018-10-01T14:54:35.569Z,1.82
2018-10-01T14:57:03.731Z,1.52
2018-10-01T14:59:31.866Z,2.00
2018-10-01T15:02:00.428Z,2.40
2018-10-01T15:04:28.707Z,2.20
2018-10-01T15:06:56.987Z,2.15
2018-10-01T15:09:25.251Z,1.67
2018-10-01T15:11:53.423Z,1.85
2018-10-01T15:14:21.578Z,1.75
2018-10-01T15:16:49.879Z,1.85
2018-10-01T15:19:18.055Z,2.17
2018-10-01T15:21:46.263Z,1.62
2018-10-01T15:24:14.553Z,1.82
2018-10-01T15:26:42.658Z,1.70
2018-10-01T15:29:10.829Z,1.67
2018-10-01T15:31:38.994Z,1.77
2018-10-01T15:34:07.170Z,1.67
2018-10-01T15:36:35.988Z,2.37
2018-10-01T15:39:05.871Z,1.85
2018-10-01T15:41:34.009Z,1.72
2018-10-01T15:44:02.222Z,1.77
2018-10-01T15:46:30.426Z,1.77
2018-10-01T15:48:58.629Z,1.52
2018-10-01T15:51:26.867Z,2.20
2018-10-01T15:53:55.029Z,2.10
2018-10-01T15:56:23.205Z,1.50
2018-10-01T15:58:51.433Z,1.90
2018-10-01T16:01:19.613Z,1.90
2018-10-01T16:03:47.776Z,1.40
2018-10-01T16:06:16.036Z,1.65
2018-10-01T16:08:44.228Z,2.58
2018-10-01T16:11:12.446Z,1.70
2018-10-01T16:13:40.629Z,1.42
2018-10-01T16:16:09.293Z,1.55
2018-10-01T16:18:37.537Z,1.30
2018-10-01T16:21:07.309Z,0.90
2018-10-01T16:23:36.132Z,0.93
2018-10-01T16:26:04.422Z,1.10
2018-10-01T16:28:32.612Z,0.80
2018-10-01T16:31:00.788Z,0.90
2018-10-01T16:33:29.340Z,1.25
2018-10-01T16:35:57.549Z,0.75
2018-10-01T16:38:25.727Z,0.80
2018-10-01T16:40:53.894Z,0.75
2018-10-01T16:43:22.137Z,0.90
2018-10-01T16:45:50.331Z,0.75
2018-10-01T16:48:18.603Z,0.90
2018-10-01T16:50:46.848Z,1.32
2018-10-01T16:53:14.980Z,0.90
2018-10-01T16:55:43.188Z,1.00
2018-10-01T16:58:11.395Z,1.72
2018-10-01T17:00:39.638Z,1.00
2018-10-01T17:03:07.809Z,1.15
2018-10-01T17:05:35.980Z,0.90
2018-10-01T17:08:04.124Z,0.72
2018-10-01T17:10:32.268Z,0.60
2018-10-01T17:19:07.362Z,0.93
2018-10-01T17:21:35.533Z,0.85
2018-10-01T17:24:03.766Z,1.07
2018-10-01T17:26:31.984Z,0.90
2018-10-01T17:29:00.150Z,0.93
2018-10-01T17:31:28.367Z,1.00
2018-10-01T17:33:56.616Z,1.32
2018-10-01T17:36:24.829Z,1.30
2018-10-01T17:38:53.001Z,1.10
2018-10-01T17:41:21.266Z,1.15
2018-10-01T17:43:49.443Z,1.82
2018-10-01T17:46:17.656Z,1.30
2018-10-01T17:48:45.860Z,1.30
2018-10-01T17:56:09.452Z,1.67
2018-10-01T17:58:37.764Z,1.90
2018-10-01T18:01:05.959Z,2.08
2018-10-01T18:03:34.234Z,2.05
2018-10-01T18:06:02.530Z,1.72
2018-10-01T18:08:31.504Z,1.82
2018-10-01T18:11:00.290Z,2.27
2018-10-01T18:13:28.532Z,2.10
2018-10-01T18:15:56.698Z,2.30
2018-10-01T18:18:24.949Z,2.58
2018-10-01T18:23:27.755Z,2.22
2018-10-01T18:25:56.013Z,1.50
2018-10-01T18:28:24.190Z,1.82
2018-10-01T18:30:52.407Z,1.95
2018-10-01T18:33:20.614Z,2.58
2018-10-01T18:35:48.895Z,2.90
2018-10-01T18:38:17.182Z,2.10
2018-10-01T18:40:45.408Z,2.52
2018-10-01T18:43:13.633Z,2.25
2018-10-01T18:45:41.944Z,2.30
2018-10-01T18:48:10.286Z,3.50
2018-10-01T18:50:38.683Z,1.98
2018-10-01T18:53:06.963Z,2.33
2018-10-01T18:55:35.168Z,2.52
2018-10-01T18:58:03.400Z,2.17
2018-10-01T19:00:31.665Z,2.42
2018-10-01T19:02:59.870Z,2.20
2018-10-01T19:05:28.140Z,2.67
2018-10-01T19:07:57.003Z,2.92
2018-10-01T19:10:25.514Z,2.50
2018-10-01T19:12:54.863Z,2.95
2018-10-01T19:15:23.152Z,2.20
2018-10-01T19:17:51.356Z,2.02
2018-10-01T19:20:19.651Z,2.55
2018-10-01T19:22:47.822Z,2.15
2018-10-01T19:25:15.999Z,2.80
2018-10-01T19:27:44.167Z,2.17
2018-10-01T19:30:12.478Z,2.00
2018-10-01T19:32:40.714Z,1.80
2018-10-01T19:35:08.863Z,2.62
2018-10-01T19:37:37.004Z,2.20
2018-10-01T19:40:05.277Z,1.75
2018-10-01T19:42:33.467Z,2.45
2018-10-01T19:45:01.739Z,2.30
2018-10-01T19:47:29.955Z,1.52
2018-10-01T19:49:58.310Z,2.02
2018-10-01T19:52:26.607Z,2.50
2018-10-01T19:54:54.816Z,1.80
2018-10-01T19:57:23.041Z,2.22
2018-10-01T19:59:51.454Z,2.20
2018-10-01T20:02:19.644Z,1.60
2018-10-01T20:04:47.969Z,2.22
2018-10-01T20:07:16.139Z,2.30
2018-10-01T20:09:45.081Z,1.98
2018-10-01T20:12:14.396Z,2.42
2018-10-01T20:14:43.309Z,1.90
2018-10-01T20:17:11.677Z,3.40
2018-10-01T20:19:39.935Z,2.08
2018-10-01T20:22:09.793Z,2.42
2018-10-01T20:24:38.064Z,2.45
2018-10-01T20:27:06.336Z,2.15
2018-10-01T20:29:34.669Z,2.17
2018-10-01T20:32:03.003Z,1.47
2018-10-01T20:34:31.520Z,1.55
2018-10-01T20:36:59.841Z,1.92
2018-10-01T20:39:28.011Z,1.90
2018-10-01T20:41:56.581Z,1.87
2018-10-01T20:44:25.541Z,2.25
2018-10-01T20:46:53.688Z,1.80
2018-10-01T20:49:21.876Z,2.08
2018-10-01T20:51:50.070Z,1.80
2018-10-01T20:54:18.273Z,1.98
2018-10-01T20:56:46.506Z,1.47
2018-10-01T20:59:16.434Z,1.55
2018-10-01T21:01:44.592Z,2.35
2018-10-01T21:04:12.819Z,2.00
2018-10-01T21:06:41.012Z,1.92
2018-10-01T21:09:10.591Z,2.20
2018-10-01T21:11:38.819Z,2.15
2018-10-01T21:14:07.056Z,2.00
2018-10-01T21:16:35.475Z,1.45
2018-10-01T21:19:03.824Z,2.00
2018-10-01T21:21:32.040Z,1.90
2018-10-01T21:24:02.025Z,1.80
2018-10-01T21:26:30.308Z,2.10
2018-10-01T21:28:58.622Z,2.80
2018-10-01T21:31:26.869Z,1.62
2018-10-01T21:33:55.077Z,1.70
2018-10-01T21:36:23.318Z,1.70
2018-10-01T21:38:51.549Z,1.52
2018-10-01T21:41:19.741Z,3.10
2018-10-01T21:43:47.947Z,2.10
2018-10-01T21:46:16.138Z,1.60
2018-10-01T21:48:44.340Z,1.67
2018-10-01T21:51:12.533Z,1.95
2018-10-01T21:53:40.746Z,2.00
2018-10-01T21:56:08.911Z,2.02
2018-10-01T21:58:37.247Z,2.42
2018-10-01T22:01:10.918Z,1.75
2018-10-01T22:03:39.185Z,2.98
2018-10-01T22:06:07.404Z,2.02
2018-10-01T22:08:35.576Z,2.50
2018-10-01T22:11:03.770Z,2.98
2018-10-01T22:13:31.953Z,2.12
2018-10-01T22:16:00.219Z,2.02
2018-10-01T22:18:28.483Z,2.40
2018-10-01T22:23:31.303Z,2.15
2018-10-01T22:26:00.256Z,2.25
2018-10-01T22:28:29.427Z,2.12
2018-10-01T22:30:57.604Z,2.70
2018-10-01T22:33:25.774Z,2.65
2018-10-01T22:35:53.949Z,2.02
2018-10-01T22:38:22.253Z,1.82
2018-10-01T22:40:50.415Z,2.17
2018-10-01T22:43:19.094Z,2.02
2018-10-01T22:45:47.292Z,1.60
2018-10-01T22:48:15.482Z,1.95
2018-10-01T22:50:43.652Z,1.75
2018-10-01T22:53:11.880Z,1.67
2018-10-01T22:55:40.037Z,2.10
2018-10-01T22:58:08.180Z,1.80
2018-10-01T23:00:36.392Z,1.70
2018-10-01T23:03:04.631Z,2.92
2018-10-01T23:05:32.815Z,1.85
2018-10-01T23:08:00.947Z,1.65
2018-10-01T23:10:29.115Z,2.77
2018-10-01T23:12:57.410Z,1.80
2018-10-01T23:15:25.621Z,2.25
2018-10-01T23:17:53.775Z,2.00
2018-10-01T23:20:21.929Z,1.52
2018-10-01T23:22:50.110Z,1.72
2018-10-01T23:25:18.286Z,1.70
2018-10-01T23:27:46.538Z,1.55
2018-10-01T23:30:14.723Z,1.67
2018-10-01T23:32:42.944Z,2.12
2018-10-01T23:35:11.107Z,2.37
2018-10-01T23:37:39.359Z,2.08
2018-10-01T23:40:07.594Z,2.17
2018-10-01T23:42:35.828Z,1.98
2018-10-01T23:45:03.996Z,1.50
2018-10-01T23:47:32.172Z,1.40
2018-10-01T23:50:00.354Z,1.40
2018-10-01T23:52:28.558Z,1.60
2018-10-01T23:54:56.837Z,1.25
2018-10-01T23:57:24.983Z,1.47
2018-10-01T23:59:53.258Z,1.25
